Aeroporto :
LOGIN :

Iscrizione | Disclaimer

   EN    FR    IT 

 










Sommario :    VFR   VFR Marginale   IFR   IFR Intensivo   IFR Molto Intensivo
Visibilità : 
Base nubi : 
>= 8 km
>= 3000ft
5 / 8 km
1000 / 3000 ft
1500m / 5 km
500 / 1000 ft
800 / 1500m
200 / 500 ft
< 800m
< 200 ft
Simboli :   Temporali  Nebbia  Neve Forte  Precipitazioni Forti  Vento > 20 kt
SIGMETs :   Varie  Temporali  Ghiacco  Turbolenza  Onda orograficha  Ceneri Vulcaniche







- Altitudine del aeroporto : 20 ft


EBFN - Koksijde

ULTIMO METAR :
  • 202025Z AUTO 23004KT 9999 OVC017/// 10/08 Q1035 WHT

METARs OBSOLETI :
  • 201955Z 22003KT 9999 SCT013 BKN015 10/08 Q1034 GRN GRN
  • 201925Z 22004KT 9999 SCT014 BKN017 10/07 Q1034 GRN GRN TEMPO WHT
  • 201923Z 22004KT 9999 SCT014 BKN017 10/07 Q1034 GRN GRN TEMPO WHT
  • 201855Z 24004KT 9999 FEW014 BKN017 10/07 Q1034 WHT WHT TEMPO GRN
  • 201825Z 25004KT 9999 FEW014 BKN017 10/07 Q1034 WHT WHT TEMPO GRN

TAF TAF EBFN
Valido dal 20 a 19 ore il 21 a 07 ore UTC


201541Z 2019/2107 25007KT 8000 FEW014 BKN022
TEMPO 2019/2022 5000 BR
BECMG 2022/2100 23005KT 4000 BR FEW005
BECMG 2102/2104 3000 BR BKN004
Nessun NOTAM noto per questo aeroporto.



MetMap, La meteo Aeronautica in un colpo d'occhio ! - Copyright ORBIFLY Dicembre 2007 - Disclaimer

ORBIFLY MET'MAP TEAM :

Programmazione e sviluppo : Alexandra Zaïnal
Concezione e sviluppo : Baudouin d'Aumeries
Co-Programmazione e sviluppo : Marc-Olivier Méhu
Supporto tecnico e logistico : Manuel Goepfert
Aiuto per la traduzione : Arnaldo La Scala

Contatto : metmap@orbifly.com




FONTI E CREDITI :

   NOAA